createdAt,value
2022-07-29T00:00:02.435Z,80.45
2022-07-29T00:02:29.469Z,80.02
2022-07-29T00:04:56.532Z,80.62
2022-07-29T00:07:23.393Z,79.74
2022-07-29T00:09:52.129Z,79.06
2022-07-29T00:12:26.765Z,79.38
2022-07-29T00:14:56.661Z,79.79
2022-07-29T00:17:25.242Z,79.65
2022-07-29T00:19:52.761Z,79.84
2022-07-29T00:22:21.262Z,80.32
2022-07-29T00:24:51.200Z,79.32
2022-07-29T00:27:19.036Z,79.32
2022-07-29T00:29:46.587Z,78.95
2022-07-29T00:32:13.570Z,78.85
2022-07-29T00:34:59.792Z,79.08
2022-07-29T00:37:26.810Z,80.35
2022-07-29T00:39:53.652Z,80.02
2022-07-29T00:42:20.858Z,80.06
2022-07-29T00:44:47.915Z,80.88
2022-07-29T00:47:15.073Z,82.79
2022-07-29T00:49:43.199Z,83.05
2022-07-29T00:52:11.814Z,82.09
2022-07-29T00:54:44.240Z,82.75
2022-07-29T00:57:12.844Z,83.49
2022-07-29T00:59:40.416Z,83.79
2022-07-29T01:02:07.650Z,84.06
2022-07-29T01:04:34.941Z,84.70
2022-07-29T01:07:06.120Z,84.83
2022-07-29T01:09:43.187Z,84.88
2022-07-29T01:12:25.816Z,84.24
2022-07-29T01:14:55.784Z,84.01
2022-07-29T01:17:39.285Z,83.42
2022-07-29T01:21:12.895Z,82.21
2022-07-29T01:24:28.654Z,81.69
2022-07-29T01:27:33.654Z,82.28
2022-07-29T01:30:05.186Z,82.11
2022-07-29T01:32:40.147Z,82.30
2022-07-29T01:35:33.614Z,82.51
2022-07-29T01:38:25.947Z,82.32
2022-07-29T01:40:59.907Z,81.70
2022-07-29T01:43:41.071Z,81.03
2022-07-29T01:46:15.992Z,79.69
2022-07-29T01:48:58.381Z,82.79
2022-07-29T01:52:01.258Z,84.73
2022-07-29T01:54:38.222Z,86.17
2022-07-29T01:57:09.214Z,86.12
2022-07-29T01:59:38.183Z,86.15
2022-07-29T02:02:09.660Z,86.76
2022-07-29T02:04:40.143Z,87.71
2022-07-29T02:07:14.242Z,89.51
2022-07-29T02:09:43.399Z,89.78
2022-07-29T02:12:12.725Z,91.23
2022-07-29T02:14:54.542Z,91.72
2022-07-29T02:17:29.086Z,91.51
2022-07-29T02:20:01.612Z,90.75
2022-07-29T02:22:34.473Z,91.23
2022-07-29T02:25:02.058Z,91.46
2022-07-29T02:27:34.376Z,91.58
2022-07-29T02:30:05.281Z,91.21
2022-07-29T02:32:36.420Z,92.14
2022-07-29T02:35:05.318Z,92.69
2022-07-29T02:37:33.206Z,92.95
2022-07-29T02:40:00.816Z,92.84
2022-07-29T02:42:29.425Z,93.97
2022-07-29T02:44:57.334Z,93.13
2022-07-29T02:47:43.692Z,93.22
2022-07-29T02:50:21.050Z,93.53
2022-07-29T02:53:14.146Z,94.19
2022-07-29T02:56:01.547Z,93.21
2022-07-29T02:58:31.677Z,92.90
2022-07-29T03:01:04.131Z,93.06
2022-07-29T03:03:38.626Z,93.15
2022-07-29T03:06:08.246Z,92.00
2022-07-29T03:08:36.580Z,91.77
2022-07-29T03:11:05.647Z,91.84
2022-07-29T03:13:33.097Z,91.18
2022-07-29T03:16:01.193Z,91.09
2022-07-29T03:18:28.553Z,92.11
2022-07-29T03:20:56.051Z,92.48
2022-07-29T03:23:24.935Z,92.18
2022-07-29T03:25:52.491Z,93.01
2022-07-29T03:28:20.416Z,93.99
2022-07-29T03:30:50.080Z,94.79
2022-07-29T03:33:17.809Z,94.95
2022-07-29T03:35:44.704Z,95.62
2022-07-29T03:38:11.728Z,96.37
2022-07-29T03:40:58.452Z,95.80
2022-07-29T03:43:31.615Z,95.56
2022-07-29T03:46:01.251Z,94.62
2022-07-29T03:48:33.856Z,93.75
2022-07-29T03:51:01.257Z,93.52
2022-07-29T03:53:28.858Z,93.79
2022-07-29T03:56:01.489Z,94.32
2022-07-29T03:58:31.435Z,95.03
2022-07-29T04:00:59.723Z,95.44
2022-07-29T04:03:27.042Z,95.88
2022-07-29T04:06:06.781Z,95.62
2022-07-29T04:08:36.644Z,95.19
2022-07-29T04:11:05.803Z,94.86
2022-07-29T04:13:33.721Z,93.36
2022-07-29T04:16:00.729Z,92.00
2022-07-29T04:18:28.653Z,91.61
2022-07-29T04:20:55.651Z,91.22
2022-07-29T04:23:22.526Z,91.47
2022-07-29T04:25:49.353Z,92.15
2022-07-29T04:28:16.215Z,92.49
2022-07-29T04:30:44.012Z,92.66
2022-07-29T04:33:11.142Z,93.21
2022-07-29T04:35:38.990Z,93.29
2022-07-29T04:38:17.203Z,93.75
2022-07-29T04:40:44.419Z,94.38
2022-07-29T04:43:13.161Z,95.16
2022-07-29T04:45:41.349Z,96.19
2022-07-29T04:48:08.567Z,95.15
2022-07-29T04:50:38.039Z,95.09
2022-07-29T04:53:04.898Z,94.69
2022-07-29T04:55:31.949Z,94.94
2022-07-29T04:57:58.814Z,95.22
2022-07-29T05:00:28.119Z,95.80
2022-07-29T05:03:01.056Z,95.29
2022-07-29T05:05:29.123Z,94.61
2022-07-29T05:07:56.366Z,94.41
2022-07-29T05:10:23.685Z,95.12
2022-07-29T05:12:50.530Z,93.71
2022-07-29T05:15:18.500Z,93.41
2022-07-29T05:17:45.624Z,92.41
2022-07-29T05:20:12.819Z,91.73
2022-07-29T05:22:39.634Z,90.66
2022-07-29T05:25:09.135Z,89.84
2022-07-29T05:27:37.752Z,90.41
2022-07-29T05:30:05.294Z,90.70
2022-07-29T05:32:32.737Z,90.05
2022-07-29T05:34:59.625Z,89.50
2022-07-29T05:37:26.671Z,89.18
2022-07-29T05:39:57.068Z,90.07
2022-07-29T05:42:25.985Z,89.55
2022-07-29T05:44:55.020Z,89.10
2022-07-29T05:47:23.070Z,88.42
2022-07-29T05:49:50.118Z,88.61
2022-07-29T05:52:17.014Z,89.01
2022-07-29T05:54:44.442Z,87.11
2022-07-29T05:57:23.018Z,87.12
2022-07-29T05:59:51.128Z,87.17
2022-07-29T06:02:19.042Z,85.79
2022-07-29T06:04:46.053Z,85.82
2022-07-29T06:07:13.055Z,84.45
2022-07-29T06:09:40.062Z,84.47
2022-07-29T06:12:06.998Z,84.13
2022-07-29T06:14:33.894Z,83.94
2022-07-29T06:17:00.935Z,83.45
2022-07-29T06:19:28.097Z,82.98
2022-07-29T06:21:55.081Z,84.11
2022-07-29T06:24:22.285Z,84.28
2022-07-29T06:26:49.322Z,83.32
2022-07-29T06:29:16.228Z,82.41
2022-07-29T06:31:43.174Z,82.38
2022-07-29T06:34:11.143Z,81.77
2022-07-29T06:36:39.739Z,81.92
2022-07-29T06:39:09.071Z,81.22
2022-07-29T06:41:36.587Z,80.80
2022-07-29T06:44:03.892Z,80.68
2022-07-29T06:46:30.959Z,81.31
2022-07-29T06:48:57.999Z,81.30
2022-07-29T06:51:24.992Z,82.10
2022-07-29T06:53:59.037Z,81.81
2022-07-29T06:56:39.073Z,80.70
2022-07-29T06:59:08.922Z,78.93
2022-07-29T07:01:39.224Z,78.30
2022-07-29T07:04:06.547Z,77.91
2022-07-29T07:06:33.443Z,78.83
2022-07-29T07:09:00.929Z,77.00
2022-07-29T07:11:28.271Z,75.70
2022-07-29T07:13:59.275Z,75.55
2022-07-29T07:16:29.408Z,74.23
2022-07-29T07:18:56.240Z,73.20
2022-07-29T07:21:23.390Z,72.48
2022-07-29T07:23:50.361Z,72.80
2022-07-29T07:26:17.204Z,72.76
2022-07-29T07:28:44.200Z,72.85
2022-07-29T07:31:12.279Z,72.61
2022-07-29T07:33:39.251Z,72.48
2022-07-29T07:36:06.218Z,71.95
2022-07-29T07:38:33.070Z,71.40
2022-07-29T07:41:01.099Z,70.02
2022-07-29T07:43:28.065Z,69.67
2022-07-29T07:45:55.024Z,69.10
2022-07-29T07:48:21.972Z,68.83
2022-07-29T07:50:50.303Z,68.95
2022-07-29T07:53:17.398Z,68.59
2022-07-29T07:56:10.519Z,67.42
2022-07-29T07:58:32.461Z,66.26
2022-07-29T08:00:59.593Z,65.37
2022-07-29T08:03:26.486Z,63.45
2022-07-29T08:05:55.159Z,63.42
2022-07-29T08:08:22.251Z,62.73
2022-07-29T08:10:56.642Z,61.92
2022-07-29T08:13:28.200Z,61.32
2022-07-29T08:16:02.715Z,58.50
2022-07-29T08:18:32.329Z,59.44
2022-07-29T08:21:00.123Z,57.63
2022-07-29T08:23:51.643Z,57.03
2022-07-29T08:26:23.465Z,56.32
2022-07-29T08:28:51.701Z,53.65
2022-07-29T08:31:19.080Z,53.04
2022-07-29T08:33:46.115Z,54.63
2022-07-29T08:36:13.978Z,51.04
2022-07-29T08:38:41.011Z,51.18
2022-07-29T08:41:08.175Z,51.88
2022-07-29T08:43:38.199Z,52.73
2022-07-29T08:46:05.546Z,50.49
2022-07-29T08:48:33.424Z,51.76
2022-07-29T08:51:02.509Z,48.11
2022-07-29T08:53:32.992Z,49.57
2022-07-29T08:56:02.979Z,47.57
2022-07-29T08:58:36.831Z,46.36
2022-07-29T09:01:05.744Z,46.82
2022-07-29T09:03:38.208Z,48.36
2022-07-29T09:06:05.878Z,46.54
2022-07-29T09:08:34.931Z,48.09
2022-07-29T09:11:04.584Z,46.34
2022-07-29T09:13:32.596Z,46.21
2022-07-29T09:15:59.714Z,48.90
2022-07-29T09:18:45.661Z,45.22
2022-07-29T09:21:35.436Z,44.27
2022-07-29T09:24:11.150Z,44.92
2022-07-29T09:26:47.746Z,46.60
2022-07-29T09:29:25.710Z,44.09
2022-07-29T09:31:56.289Z,43.22
2022-07-29T09:34:32.160Z,42.43
2022-07-29T09:36:59.457Z,44.66
2022-07-29T09:39:35.228Z,45.72
2022-07-29T09:42:06.267Z,42.83
2022-07-29T09:44:49.441Z,40.75
2022-07-29T09:47:18.974Z,44.58
2022-07-29T09:49:58.986Z,42.81
2022-07-29T09:52:31.028Z,43.65
2022-07-29T09:55:10.189Z,41.89
2022-07-29T09:57:41.016Z,41.81
2022-07-29T10:00:10.492Z,41.12
2022-07-29T10:02:39.582Z,38.17
2022-07-29T10:05:26.399Z,41.58
2022-07-29T10:07:59.439Z,41.60
2022-07-29T10:10:34.811Z,39.58
2022-07-29T10:13:13.417Z,40.44
2022-07-29T10:15:46.260Z,39.87
2022-07-29T10:18:15.420Z,45.15
2022-07-29T10:20:42.535Z,38.96
2022-07-29T10:23:10.704Z,36.68
2022-07-29T10:25:37.808Z,39.63
2022-07-29T10:28:07.113Z,40.01
2022-07-29T10:30:34.506Z,39.33
2022-07-29T10:33:49.500Z,41.01
2022-07-29T10:36:55.579Z,40.00
2022-07-29T10:40:29.044Z,38.38
2022-07-29T10:43:03.770Z,36.56
2022-07-29T10:45:31.497Z,36.15
2022-07-29T10:48:07.860Z,35.46
2022-07-29T10:51:03.948Z,37.46
2022-07-29T10:53:54.147Z,33.83
2022-07-29T10:56:31.011Z,35.22
2022-07-29T10:59:22.740Z,34.53
2022-07-29T11:01:54.408Z,33.72
2022-07-29T11:04:44.515Z,33.01
2022-07-29T11:07:13.145Z,32.54
2022-07-29T11:09:42.468Z,33.12
2022-07-29T11:12:48.291Z,33.83
2022-07-29T11:15:19.611Z,36.05
2022-07-29T11:17:59.676Z,35.95
2022-07-29T11:20:50.930Z,34.35
2022-07-29T11:23:26.036Z,39.04
2022-07-29T11:26:18.628Z,33.93
2022-07-29T11:29:14.882Z,35.15
2022-07-29T11:31:49.923Z,32.50
2022-07-29T11:34:33.461Z,34.27
2022-07-29T11:37:09.975Z,35.48
2022-07-29T11:39:44.511Z,35.31
2022-07-29T11:42:28.210Z,35.00
2022-07-29T11:45:42.759Z,34.51
2022-07-29T11:48:29.566Z,34.24
2022-07-29T11:51:00.042Z,35.20
2022-07-29T11:53:28.951Z,36.00
2022-07-29T11:56:02.539Z,35.42
2022-07-29T11:58:31.863Z,37.03
2022-07-29T12:01:04.137Z,37.18
2022-07-29T12:03:36.685Z,36.78
2022-07-29T12:09:07.409Z,37.69
2022-07-29T12:11:38.375Z,41.12
2022-07-29T12:14:07.009Z,39.74
2022-07-29T12:16:40.935Z,38.65
2022-07-29T12:19:08.045Z,38.30
2022-07-29T12:21:56.619Z,41.37
2022-07-29T12:24:26.741Z,39.76
2022-07-29T12:26:58.162Z,40.01
2022-07-29T12:29:41.994Z,38.74
2022-07-29T12:32:19.781Z,40.65
2022-07-29T12:34:47.624Z,38.07
2022-07-29T12:37:14.680Z,37.91
2022-07-29T12:39:41.647Z,38.41
2022-07-29T12:42:18.663Z,38.77
2022-07-29T12:44:50.579Z,38.45
2022-07-29T12:47:19.430Z,37.75
2022-07-29T12:49:50.395Z,38.32
2022-07-29T12:52:34.838Z,39.15
2022-07-29T12:55:02.419Z,39.09
2022-07-29T12:57:29.585Z,39.13
2022-07-29T13:00:13.950Z,39.40
2022-07-29T13:02:43.493Z,38.17
2022-07-29T13:05:13.696Z,39.34
2022-07-29T13:07:54.621Z,37.78
2022-07-29T13:10:24.897Z,37.35
2022-07-29T13:13:11.859Z,38.75
2022-07-29T13:15:44.868Z,38.78
2022-07-29T13:18:32.943Z,38.67
2022-07-29T13:21:14.280Z,37.03
2022-07-29T13:23:42.371Z,37.15
2022-07-29T13:26:12.477Z,36.44
2022-07-29T13:29:10.782Z,36.28
2022-07-29T13:31:37.857Z,36.35
2022-07-29T13:34:04.832Z,35.69
2022-07-29T13:36:31.632Z,37.07
2022-07-29T13:38:58.574Z,34.87
2022-07-29T13:41:25.960Z,33.96
2022-07-29T13:43:52.869Z,33.25
2022-07-29T13:46:19.715Z,32.96
2022-07-29T13:48:46.670Z,31.68
2022-07-29T13:51:14.006Z,31.61
2022-07-29T13:53:40.991Z,31.52
2022-07-29T13:56:08.164Z,31.65
2022-07-29T13:58:35.705Z,31.56
2022-07-29T14:01:02.901Z,32.38
2022-07-29T14:03:30.071Z,33.65
2022-07-29T14:05:57.304Z,33.66
2022-07-29T14:08:24.315Z,32.88
2022-07-29T14:10:51.324Z,32.92
2022-07-29T14:13:24.679Z,34.82
2022-07-29T14:15:52.892Z,33.75
2022-07-29T14:18:19.899Z,32.64
2022-07-29T14:20:48.292Z,33.18
2022-07-29T14:23:16.269Z,34.71
2022-07-29T14:25:43.556Z,33.98
2022-07-29T14:28:11.546Z,33.63
2022-07-29T14:30:40.867Z,37.13
2022-07-29T14:33:09.161Z,33.10
2022-07-29T14:35:36.067Z,33.15
2022-07-29T14:38:03.456Z,32.89
2022-07-29T14:40:30.565Z,32.58
2022-07-29T14:42:57.427Z,32.41
2022-07-29T14:45:25.750Z,32.74
2022-07-29T14:47:56.352Z,32.96
2022-07-29T14:50:31.967Z,33.23
2022-07-29T14:53:00.916Z,32.27
2022-07-29T14:55:28.194Z,32.89
2022-07-29T14:58:05.834Z,33.10
2022-07-29T15:00:37.677Z,33.55
2022-07-29T15:03:05.992Z,33.81
2022-07-29T15:05:33.507Z,33.61
2022-07-29T15:08:30.774Z,34.07
2022-07-29T15:11:00.196Z,33.48
2022-07-29T15:13:27.426Z,33.43
2022-07-29T15:15:59.712Z,33.21
2022-07-29T15:18:26.991Z,34.23
2022-07-29T15:20:53.923Z,33.25
2022-07-29T15:23:21.152Z,33.43
2022-07-29T15:25:48.124Z,33.61
2022-07-29T15:28:15.076Z,33.72
2022-07-29T15:30:42.003Z,33.48
2022-07-29T15:33:10.503Z,34.52
2022-07-29T15:35:40.534Z,32.75
2022-07-29T15:38:09.732Z,33.17
2022-07-29T15:40:41.159Z,33.36
2022-07-29T15:43:08.741Z,33.25
2022-07-29T15:46:02.773Z,33.08
2022-07-29T15:48:30.107Z,32.87
2022-07-29T15:50:56.954Z,33.68
2022-07-29T15:53:24.205Z,33.22
2022-07-29T15:55:51.073Z,32.73
2022-07-29T15:58:18.340Z,33.79
2022-07-29T16:00:45.326Z,33.44
2022-07-29T16:03:12.575Z,32.68
2022-07-29T16:05:39.559Z,32.79
2022-07-29T16:08:06.713Z,32.90
2022-07-29T16:10:34.147Z,33.28
2022-07-29T16:13:01.017Z,34.96
2022-07-29T16:15:27.973Z,33.95
2022-07-29T16:17:54.895Z,33.40
2022-07-29T16:20:22.352Z,33.27
2022-07-29T16:22:49.898Z,32.71
2022-07-29T16:25:17.324Z,33.79
2022-07-29T16:27:44.278Z,34.31
2022-07-29T16:30:12.060Z,34.27
2022-07-29T16:32:40.189Z,34.29
2022-07-29T16:35:08.848Z,34.25
2022-07-29T16:37:39.632Z,34.03
2022-07-29T16:40:12.002Z,33.95
2022-07-29T16:42:47.905Z,33.72
2022-07-29T16:45:18.312Z,33.63
2022-07-29T16:47:48.414Z,34.90
2022-07-29T16:50:15.315Z,33.65
2022-07-29T16:52:42.219Z,33.57
2022-07-29T16:55:09.836Z,33.58
2022-07-29T16:57:36.771Z,33.86
2022-07-29T17:00:06.488Z,33.79
2022-07-29T17:02:33.294Z,34.11
2022-07-29T17:05:00.153Z,34.41
2022-07-29T17:07:29.737Z,35.06
2022-07-29T17:10:00.615Z,34.97
2022-07-29T17:12:34.269Z,35.30
2022-07-29T17:15:01.303Z,35.70
2022-07-29T17:17:38.645Z,36.33
2022-07-29T17:20:09.538Z,35.69
2022-07-29T17:22:39.787Z,35.51
2022-07-29T17:25:08.642Z,35.76
2022-07-29T17:27:36.111Z,35.62
2022-07-29T17:30:05.708Z,35.21
2022-07-29T17:32:40.002Z,35.37
2022-07-29T17:35:35.745Z,35.16
2022-07-29T17:38:02.691Z,35.20
2022-07-29T17:40:29.738Z,35.21
2022-07-29T17:42:56.614Z,35.35
2022-07-29T17:45:23.727Z,35.66
2022-07-29T17:47:51.019Z,35.43
2022-07-29T17:50:18.054Z,35.77
2022-07-29T17:52:57.792Z,35.83
2022-07-29T17:55:25.030Z,35.89
2022-07-29T17:57:52.031Z,35.78
2022-07-29T18:00:19.440Z,35.78
2022-07-29T18:02:46.431Z,35.66
2022-07-29T18:05:13.459Z,36.03
2022-07-29T18:07:40.887Z,35.88
2022-07-29T18:10:08.459Z,36.07
2022-07-29T18:12:35.366Z,35.83
2022-07-29T18:15:02.286Z,35.81
2022-07-29T18:17:52.975Z,36.19
2022-07-29T18:20:16.173Z,36.56
2022-07-29T18:22:42.964Z,36.87
2022-07-29T18:25:09.894Z,36.52
2022-07-29T18:27:36.735Z,36.57
2022-07-29T18:30:06.354Z,36.74
2022-07-29T18:32:33.608Z,37.03
2022-07-29T18:35:05.128Z,37.12
2022-07-29T18:38:00.293Z,37.33
2022-07-29T18:40:25.744Z,36.54
2022-07-29T18:42:53.071Z,36.83
2022-07-29T18:45:20.055Z,37.08
2022-07-29T18:47:49.246Z,37.23
2022-07-29T18:50:17.084Z,37.40
2022-07-29T18:52:46.239Z,37.56
2022-07-29T18:55:13.837Z,37.63
2022-07-29T18:57:54.889Z,37.88
2022-07-29T19:00:24.173Z,37.66
2022-07-29T19:02:51.534Z,37.72
2022-07-29T19:05:18.833Z,38.16
2022-07-29T19:07:45.732Z,38.21
2022-07-29T19:10:13.511Z,38.16
2022-07-29T19:12:40.550Z,38.93
2022-07-29T19:15:10.283Z,38.58
2022-07-29T19:17:37.861Z,40.00
2022-07-29T19:20:06.339Z,40.46
2022-07-29T19:22:34.814Z,41.18
2022-07-29T19:25:01.767Z,41.22
2022-07-29T19:27:28.786Z,41.79
2022-07-29T19:29:59.150Z,42.47
2022-07-29T19:32:27.113Z,42.55
2022-07-29T19:35:12.547Z,42.77
2022-07-29T19:37:39.600Z,42.91
2022-07-29T19:40:07.366Z,42.64
2022-07-29T19:42:34.738Z,43.14
2022-07-29T19:45:01.667Z,43.33
2022-07-29T19:47:28.760Z,43.78
2022-07-29T19:49:55.814Z,43.59
2022-07-29T19:52:22.702Z,44.16
2022-07-29T19:54:49.602Z,45.09
2022-07-29T19:57:16.487Z,45.27
2022-07-29T19:59:44.260Z,45.43
2022-07-29T20:02:12.413Z,45.77
2022-07-29T20:04:39.779Z,46.31
2022-07-29T20:07:07.659Z,46.47
2022-07-29T20:09:35.550Z,46.92
2022-07-29T20:12:06.063Z,47.43
2022-07-29T20:14:32.873Z,47.94
2022-07-29T20:17:00.157Z,47.60
2022-07-29T20:19:27.473Z,47.71
2022-07-29T20:21:57.442Z,47.53
2022-07-29T20:24:24.578Z,47.96
2022-07-29T20:26:51.772Z,47.99
2022-07-29T20:29:18.670Z,48.14
2022-07-29T20:31:46.314Z,48.69
2022-07-29T20:34:20.234Z,49.06
2022-07-29T20:36:49.318Z,49.03
2022-07-29T20:39:16.312Z,49.10
2022-07-29T20:41:43.245Z,49.61
2022-07-29T20:44:10.206Z,48.94
2022-07-29T20:46:39.243Z,49.29
2022-07-29T20:49:06.307Z,49.26
2022-07-29T20:51:43.692Z,49.02
2022-07-29T20:54:11.522Z,49.77
2022-07-29T20:56:39.477Z,50.14
2022-07-29T20:59:06.565Z,50.86
2022-07-29T21:01:33.628Z,51.05
2022-07-29T21:04:02.993Z,50.73
2022-07-29T21:06:31.834Z,50.41
2022-07-29T21:08:59.732Z,50.66
2022-07-29T21:11:43.265Z,50.88
2022-07-29T21:14:23.148Z,50.79
2022-07-29T21:16:50.284Z,51.30
2022-07-29T21:19:17.310Z,50.92
2022-07-29T21:21:44.250Z,51.37
2022-07-29T21:24:12.251Z,51.45
2022-07-29T21:26:39.262Z,51.30
2022-07-29T21:29:06.118Z,51.40
2022-07-29T21:31:33.175Z,52.01
2022-07-29T21:34:00.077Z,52.02
2022-07-29T21:39:13.871Z,51.67
2022-07-29T21:41:40.674Z,51.65
2022-07-29T21:44:07.570Z,51.75
2022-07-29T21:46:36.371Z,51.65
2022-07-29T21:49:03.898Z,51.93
2022-07-29T21:51:31.047Z,51.85
2022-07-29T21:53:58.216Z,51.70
2022-07-29T21:56:27.484Z,51.51
2022-07-29T21:58:56.142Z,51.50
2022-07-29T22:01:24.074Z,52.12
2022-07-29T22:03:51.079Z,52.36
2022-07-29T22:06:18.488Z,52.22
2022-07-29T22:08:45.994Z,52.55
2022-07-29T22:11:13.556Z,52.75
2022-07-29T22:13:40.665Z,53.34
2022-07-29T22:16:10.117Z,53.57
2022-07-29T22:18:36.951Z,53.66
2022-07-29T22:21:04.005Z,53.74
2022-07-29T22:23:31.098Z,53.64
2022-07-29T22:25:58.054Z,53.82
2022-07-29T22:28:25.037Z,53.84
2022-07-29T22:30:52.044Z,54.13
2022-07-29T22:33:18.987Z,54.37
2022-07-29T22:35:48.986Z,54.50
2022-07-29T22:38:18.107Z,54.67
2022-07-29T22:40:45.113Z,54.40
2022-07-29T22:43:12.334Z,54.58
2022-07-29T22:45:39.296Z,54.83
2022-07-29T22:48:06.472Z,55.06
2022-07-29T22:50:33.858Z,54.92
2022-07-29T22:53:00.714Z,54.93
2022-07-29T22:55:27.906Z,55.42
2022-07-29T22:57:54.824Z,54.87
2022-07-29T23:00:21.977Z,55.06
2022-07-29T23:02:49.166Z,55.23
2022-07-29T23:05:16.380Z,55.38
2022-07-29T23:07:43.441Z,55.52
2022-07-29T23:10:10.673Z,56.30
2022-07-29T23:12:37.896Z,56.68
2022-07-29T23:15:06.724Z,56.77
2022-07-29T23:17:36.306Z,56.51
2022-07-29T23:20:07.644Z,56.54
2022-07-29T23:22:35.970Z,56.24
2022-07-29T23:25:04.032Z,56.80
2022-07-29T23:27:30.986Z,57.12
2022-07-29T23:29:57.918Z,57.61
2022-07-29T23:32:24.887Z,57.87
2022-07-29T23:34:51.808Z,58.26
2022-07-29T23:37:18.697Z,57.97
2022-07-29T23:39:45.600Z,58.26
2022-07-29T23:42:12.685Z,58.17
2022-07-29T23:44:39.596Z,58.61
2022-07-29T23:47:06.610Z,58.92
2022-07-29T23:49:34.278Z,58.86
2022-07-29T23:52:01.248Z,58.99
2022-07-29T23:54:28.252Z,58.69
2022-07-29T23:56:57.512Z,58.67
2022-07-29T23:59:25.202Z,58.42
